createdAt,value
2023-05-22T00:01:32.459Z,5.22
2023-05-22T00:03:59.969Z,5.55
2023-05-22T00:06:27.692Z,5.40
2023-05-22T00:08:54.810Z,5.05
2023-05-22T00:11:23.312Z,4.93
2023-05-22T00:13:50.334Z,5.10
2023-05-22T00:16:17.658Z,4.90
2023-05-22T00:18:44.998Z,5.75
2023-05-22T00:21:12.111Z,5.60
2023-05-22T00:23:39.145Z,5.20
2023-05-22T00:26:06.250Z,5.40
2023-05-22T00:28:34.627Z,5.43
2023-05-22T00:31:01.682Z,5.50
2023-05-22T00:33:28.711Z,5.30
2023-05-22T00:35:55.811Z,5.05
2023-05-22T00:38:32.238Z,5.57
2023-05-22T00:40:59.715Z,5.22
2023-05-22T00:43:27.135Z,5.20
2023-05-22T00:45:55.860Z,5.50
2023-05-22T00:48:23.050Z,5.22
2023-05-22T00:50:50.528Z,5.10
2023-05-22T00:53:20.590Z,5.15
2023-05-22T00:55:48.113Z,5.72
2023-05-22T00:58:17.657Z,5.25
2023-05-22T01:00:46.629Z,4.85
2023-05-22T01:03:15.226Z,5.30
2023-05-22T01:05:43.317Z,5.47
2023-05-22T01:08:11.193Z,5.03
2023-05-22T01:10:40.079Z,5.53
2023-05-22T01:13:14.848Z,5.45
2023-05-22T01:15:50.093Z,5.38
2023-05-22T01:18:26.332Z,5.85
2023-05-22T01:21:04.186Z,5.47
2023-05-22T01:24:00.820Z,5.43
2023-05-22T01:27:14.789Z,5.07
2023-05-22T01:29:46.538Z,5.30
2023-05-22T01:32:17.654Z,5.47
2023-05-22T01:34:46.723Z,4.60
2023-05-22T01:37:15.065Z,4.78
2023-05-22T01:39:43.916Z,5.43
2023-05-22T01:42:11.235Z,5.10
2023-05-22T01:44:38.316Z,5.18
2023-05-22T01:47:05.938Z,5.18
2023-05-22T01:49:35.850Z,4.88
2023-05-22T01:52:10.087Z,4.75
2023-05-22T01:54:42.681Z,4.85
2023-05-22T01:57:16.603Z,5.15
2023-05-22T01:59:49.693Z,5.10
2023-05-22T02:02:19.206Z,4.72
2023-05-22T02:04:54.367Z,4.93
2023-05-22T02:09:50.767Z,4.90
2023-05-22T02:12:18.330Z,5.13
2023-05-22T02:14:46.375Z,4.95
2023-05-22T02:17:13.478Z,4.85
2023-05-22T02:19:40.597Z,5.07
2023-05-22T02:22:11.735Z,5.20
2023-05-22T02:24:38.803Z,5.35
2023-05-22T02:27:06.291Z,5.05
2023-05-22T02:29:33.591Z,5.25
2023-05-22T02:32:00.943Z,4.60
2023-05-22T02:34:28.396Z,4.95
2023-05-22T02:36:56.364Z,5.10
2023-05-22T02:39:24.865Z,5.47
2023-05-22T02:41:52.032Z,4.68
2023-05-22T02:44:19.026Z,4.50
2023-05-22T02:46:47.406Z,4.85
2023-05-22T02:49:14.507Z,4.82
2023-05-22T02:51:41.616Z,5.05
2023-05-22T02:54:08.639Z,5.28
2023-05-22T02:56:37.049Z,4.53
2023-05-22T02:59:04.021Z,5.00
2023-05-22T03:01:31.002Z,4.97
2023-05-22T03:03:58.232Z,4.88
2023-05-22T03:06:25.522Z,5.32
2023-05-22T03:08:53.762Z,5.18
2023-05-22T03:11:21.506Z,5.00
2023-05-22T03:13:49.882Z,5.35
2023-05-22T03:16:17.137Z,5.28
2023-05-22T03:18:46.565Z,6.22
2023-05-22T03:21:13.646Z,6.13
2023-05-22T03:23:40.681Z,6.30
2023-05-22T03:26:07.674Z,5.20
2023-05-22T03:28:37.581Z,6.43
2023-05-22T03:31:09.581Z,5.70
2023-05-22T03:33:51.129Z,6.18
2023-05-22T03:36:18.692Z,5.80
2023-05-22T03:38:45.732Z,5.30
2023-05-22T03:41:12.726Z,6.18
2023-05-22T03:43:42.120Z,5.75
2023-05-22T03:46:12.950Z,5.68
2023-05-22T03:48:40.022Z,5.70
2023-05-22T03:51:07.032Z,5.72
2023-05-22T03:53:34.028Z,5.35
2023-05-22T03:56:01.139Z,5.88
2023-05-22T03:58:28.228Z,5.43
2023-05-22T04:00:58.611Z,5.35
2023-05-22T04:03:28.054Z,5.43
2023-05-22T04:05:56.858Z,5.65
2023-05-22T04:08:24.096Z,5.00
2023-05-22T04:10:51.591Z,5.45
2023-05-22T04:13:18.987Z,6.30
2023-05-22T04:15:47.059Z,5.40
2023-05-22T04:18:14.244Z,5.57
2023-05-22T04:20:42.947Z,5.90
2023-05-22T04:23:10.055Z,5.68
2023-05-22T04:25:38.003Z,5.72
2023-05-22T04:28:05.061Z,5.97
2023-05-22T04:30:37.637Z,5.28
2023-05-22T04:33:05.666Z,5.15
2023-05-22T04:35:32.932Z,5.28
2023-05-22T04:38:02.334Z,5.70
2023-05-22T04:40:33.775Z,5.20
2023-05-22T04:43:01.628Z,5.15
2023-05-22T04:45:30.633Z,4.63
2023-05-22T04:48:02.750Z,4.68
2023-05-22T04:50:34.388Z,4.70
2023-05-22T04:53:04.502Z,5.10
2023-05-22T04:55:34.121Z,5.30
2023-05-22T04:58:01.624Z,4.88
2023-05-22T05:00:29.623Z,5.38
2023-05-22T05:02:57.980Z,5.25
2023-05-22T05:05:25.396Z,5.15
2023-05-22T05:07:53.853Z,4.80
2023-05-22T05:10:22.287Z,4.90
2023-05-22T05:12:49.818Z,4.95
2023-05-22T05:15:17.733Z,5.28
2023-05-22T05:17:44.786Z,5.18
2023-05-22T05:20:14.609Z,5.07
2023-05-22T05:22:43.980Z,4.93
2023-05-22T05:25:11.941Z,5.13
2023-05-22T05:27:41.524Z,5.57
2023-05-22T05:30:10.788Z,5.50
2023-05-22T05:32:58.601Z,4.85
2023-05-22T05:35:36.117Z,5.35
2023-05-22T05:38:07.979Z,5.30
2023-05-22T05:40:36.377Z,4.95
2023-05-22T05:43:08.993Z,5.72
2023-05-22T05:45:36.276Z,4.78
2023-05-22T05:48:03.439Z,5.10
2023-05-22T05:50:31.319Z,5.20
2023-05-22T05:52:58.597Z,5.45
2023-05-22T05:55:26.003Z,5.00
2023-05-22T05:57:54.399Z,4.90
2023-05-22T06:00:30.213Z,4.43
2023-05-22T06:02:59.725Z,4.68
2023-05-22T06:05:47.792Z,4.45
2023-05-22T06:08:24.077Z,4.50
2023-05-22T06:10:51.637Z,4.38
2023-05-22T06:13:37.206Z,3.90
2023-05-22T06:16:07.027Z,4.43
2023-05-22T06:18:35.070Z,3.90
2023-05-22T06:21:02.175Z,3.88
2023-05-22T06:23:29.197Z,4.40
2023-05-22T06:25:57.412Z,4.28
2023-05-22T06:28:25.686Z,3.75
2023-05-22T06:30:53.089Z,4.40
2023-05-22T06:33:24.267Z,3.65
2023-05-22T06:35:51.356Z,3.70
2023-05-22T06:38:19.487Z,3.70
2023-05-22T06:40:46.503Z,4.20
2023-05-22T06:43:18.625Z,3.83
2023-05-22T06:45:58.715Z,3.65
2023-05-22T06:48:39.478Z,4.03
2023-05-22T06:51:12.893Z,3.80
2023-05-22T06:53:41.528Z,3.97
2023-05-22T06:56:16.543Z,4.05
2023-05-22T06:58:55.395Z,4.32
2023-05-22T07:01:29.390Z,4.10
2023-05-22T07:04:09.073Z,4.20
2023-05-22T07:06:41.871Z,3.60
2023-05-22T07:09:11.302Z,3.70
2023-05-22T07:11:38.615Z,4.30
2023-05-22T07:14:05.916Z,3.75
2023-05-22T07:16:33.036Z,3.70
2023-05-22T07:19:03.218Z,4.10
2023-05-22T07:21:32.597Z,3.92
2023-05-22T07:23:59.657Z,3.83
2023-05-22T07:26:27.855Z,3.50
2023-05-22T07:29:03.022Z,3.67
2023-05-22T07:31:34.454Z,3.05
2023-05-22T07:34:02.853Z,3.70
2023-05-22T07:36:32.221Z,3.80
2023-05-22T07:38:59.209Z,3.72
2023-05-22T07:41:27.280Z,3.45
2023-05-22T07:43:54.416Z,3.22
2023-05-22T07:46:26.958Z,3.28
2023-05-22T07:49:04.882Z,3.50
2023-05-22T07:51:33.676Z,3.83
2023-05-22T07:54:00.832Z,5.20
2023-05-22T07:56:28.247Z,3.90
2023-05-22T07:58:56.368Z,3.88
2023-05-22T08:01:24.191Z,3.75
2023-05-22T08:03:51.525Z,3.80
2023-05-22T08:06:18.619Z,3.63
2023-05-22T08:08:46.997Z,4.32
2023-05-22T08:11:14.014Z,3.97
2023-05-22T08:13:41.244Z,4.07
2023-05-22T08:16:08.461Z,3.30
2023-05-22T08:18:35.569Z,4.15
2023-05-22T08:21:02.957Z,3.75
2023-05-22T08:23:30.125Z,3.90
2023-05-22T08:25:58.561Z,3.75
2023-05-22T08:28:25.725Z,4.18
2023-05-22T08:30:52.728Z,4.03
2023-05-22T08:33:19.824Z,3.97
2023-05-22T08:35:46.891Z,3.40
2023-05-22T08:38:13.908Z,3.40
2023-05-22T08:40:43.270Z,3.42
2023-05-22T08:43:13.773Z,3.70
2023-05-22T08:45:42.509Z,3.55
2023-05-22T08:48:13.010Z,3.00
2023-05-22T08:50:46.187Z,3.40
2023-05-22T08:53:15.725Z,3.22
2023-05-22T08:55:42.861Z,3.33
2023-05-22T08:58:11.661Z,3.35
2023-05-22T09:00:41.339Z,3.13
2023-05-22T09:03:10.251Z,3.40
2023-05-22T09:05:37.594Z,3.10
2023-05-22T09:08:16.054Z,3.22
2023-05-22T09:10:47.730Z,3.17
2023-05-22T09:13:25.473Z,3.00
2023-05-22T09:15:58.362Z,3.05
2023-05-22T09:18:27.853Z,3.03
2023-05-22T09:20:57.725Z,2.75
2023-05-22T09:23:27.562Z,3.33
2023-05-22T09:25:56.246Z,3.00
2023-05-22T09:28:23.531Z,2.70
2023-05-22T09:30:51.401Z,2.63
2023-05-22T09:33:20.239Z,3.80
2023-05-22T09:35:48.489Z,3.10
2023-05-22T09:38:15.696Z,3.80
2023-05-22T09:40:42.760Z,2.85
2023-05-22T09:43:10.232Z,2.83
2023-05-22T09:45:38.261Z,2.95
2023-05-22T09:48:06.518Z,3.50
2023-05-22T09:50:35.694Z,3.10
2023-05-22T09:53:03.691Z,3.38
2023-05-22T09:55:32.213Z,3.15
2023-05-22T09:58:04.237Z,3.05
2023-05-22T10:00:34.588Z,3.17
2023-05-22T10:03:08.041Z,3.05
2023-05-22T10:05:39.815Z,2.55
2023-05-22T10:08:11.784Z,3.10
2023-05-22T10:10:41.448Z,2.63
2023-05-22T10:13:09.258Z,2.50
2023-05-22T10:15:36.655Z,2.67
2023-05-22T10:18:05.199Z,3.08
2023-05-22T10:20:32.782Z,3.03
2023-05-22T10:23:03.270Z,2.85
2023-05-22T10:25:30.718Z,3.05
2023-05-22T10:27:59.520Z,2.80
2023-05-22T10:30:34.063Z,2.30
2023-05-22T10:33:22.655Z,2.80
2023-05-22T10:35:53.377Z,3.00
2023-05-22T10:38:40.131Z,2.88
2023-05-22T10:41:08.094Z,3.13
2023-05-22T10:43:39.167Z,3.30
2023-05-22T10:46:07.618Z,3.42
2023-05-22T10:48:38.925Z,3.40
2023-05-22T10:51:07.638Z,3.00
2023-05-22T10:53:37.047Z,2.90
2023-05-22T10:56:12.001Z,3.35
2023-05-22T10:58:39.785Z,3.50
2023-05-22T11:01:15.652Z,3.22
2023-05-22T11:03:57.267Z,2.80
2023-05-22T11:06:37.650Z,2.90
2023-05-22T11:09:29.064Z,3.08
2023-05-22T11:12:22.931Z,3.25
2023-05-22T11:14:55.162Z,3.10
2023-05-22T11:17:25.157Z,3.53
2023-05-22T11:20:05.308Z,3.05
2023-05-22T11:22:35.037Z,3.22
2023-05-22T11:25:08.455Z,2.88
2023-05-22T11:27:36.716Z,3.80
2023-05-22T11:30:04.638Z,3.05
2023-05-22T11:32:32.008Z,3.22
2023-05-22T11:34:59.323Z,3.72
2023-05-22T11:37:26.830Z,3.60
2023-05-22T11:40:06.986Z,3.90
2023-05-22T11:42:36.118Z,3.78
2023-05-22T11:45:03.946Z,3.92
2023-05-22T11:47:31.547Z,4.43
2023-05-22T11:49:59.988Z,4.00
2023-05-22T11:52:34.695Z,4.47
2023-05-22T11:55:02.512Z,4.20
2023-05-22T11:57:29.940Z,4.05
2023-05-22T11:59:58.796Z,3.60
2023-05-22T12:02:26.350Z,3.50
2023-05-22T12:04:57.444Z,3.55
2023-05-22T12:07:26.063Z,3.03
2023-05-22T12:09:57.420Z,3.55
2023-05-22T12:12:24.790Z,3.38
2023-05-22T12:14:52.067Z,3.33
2023-05-22T12:17:20.577Z,3.22
2023-05-22T12:19:48.190Z,3.38
2023-05-22T12:22:15.349Z,3.22
2023-05-22T12:24:46.403Z,2.80
2023-05-22T12:27:14.473Z,3.17
2023-05-22T12:29:42.868Z,3.80
2023-05-22T12:32:12.116Z,3.60
2023-05-22T12:34:47.333Z,3.30
2023-05-22T12:37:21.340Z,3.38
2023-05-22T12:39:56.715Z,4.20
2023-05-22T12:42:25.090Z,3.90
2023-05-22T12:44:54.829Z,3.60
2023-05-22T12:47:23.666Z,3.60
2023-05-22T12:49:52.692Z,3.88
2023-05-22T12:52:20.094Z,3.60
2023-05-22T12:54:47.403Z,3.42
2023-05-22T12:57:17.143Z,3.38
2023-05-22T12:59:44.607Z,2.83
2023-05-22T13:02:12.027Z,3.42
2023-05-22T13:04:39.320Z,3.17
2023-05-22T13:07:08.157Z,3.05
2023-05-22T13:09:35.891Z,3.60
2023-05-22T13:12:04.901Z,3.70
2023-05-22T13:14:32.899Z,3.30
2023-05-22T13:17:01.055Z,3.20
2023-05-22T13:19:28.725Z,3.50
2023-05-22T13:21:56.145Z,3.15
2023-05-22T13:24:24.629Z,3.35
2023-05-22T13:26:52.387Z,3.10
2023-05-22T13:29:20.245Z,3.30
2023-05-22T13:31:48.750Z,3.00
2023-05-22T13:34:16.257Z,3.38
2023-05-22T13:36:43.859Z,3.33
2023-05-22T13:39:11.245Z,3.55
2023-05-22T13:41:40.119Z,3.20
2023-05-22T13:44:07.420Z,3.50
2023-05-22T13:46:34.594Z,3.40
2023-05-22T13:49:02.094Z,3.53
2023-05-22T13:51:29.750Z,3.40
2023-05-22T13:53:56.806Z,4.05
2023-05-22T13:56:24.038Z,3.63
2023-05-22T13:58:52.486Z,3.42
2023-05-22T14:01:19.864Z,3.70
2023-05-22T14:03:46.959Z,4.07
2023-05-22T14:06:14.545Z,4.70
2023-05-22T14:08:41.982Z,4.60
2023-05-22T14:11:09.042Z,4.93
2023-05-22T14:13:36.216Z,3.38
2023-05-22T14:16:05.081Z,3.55
2023-05-22T14:18:32.490Z,3.45
2023-05-22T14:20:59.635Z,3.80
2023-05-22T14:23:26.702Z,3.55
2023-05-22T14:25:53.797Z,3.30
2023-05-22T14:28:20.956Z,3.53
2023-05-22T14:30:48.256Z,2.92
2023-05-22T14:33:16.683Z,3.00
2023-05-22T14:35:44.828Z,3.13
2023-05-22T14:38:11.880Z,3.35
2023-05-22T14:40:39.045Z,3.45
2023-05-22T14:43:06.160Z,3.20
2023-05-22T14:45:33.177Z,2.92
2023-05-22T14:48:00.474Z,3.38
2023-05-22T14:50:29.169Z,3.25
2023-05-22T14:52:56.170Z,3.38
2023-05-22T14:55:25.352Z,3.40
2023-05-22T14:57:52.313Z,3.00
2023-05-22T15:00:20.039Z,2.92
2023-05-22T15:02:47.204Z,3.38
2023-05-22T15:05:14.302Z,3.22
2023-05-22T15:07:45.373Z,3.13
2023-05-22T15:10:13.881Z,3.08
2023-05-22T15:12:40.932Z,3.35
2023-05-22T15:15:09.227Z,3.45
2023-05-22T15:17:36.366Z,3.80
2023-05-22T15:20:04.919Z,3.70
2023-05-22T15:22:31.926Z,3.45
2023-05-22T15:25:08.774Z,3.85
2023-05-22T15:27:36.211Z,3.50
2023-05-22T15:30:04.569Z,3.55
2023-05-22T15:32:32.130Z,3.55
2023-05-22T15:34:59.176Z,3.97
2023-05-22T15:37:27.664Z,3.42
2023-05-22T15:39:55.820Z,3.42
2023-05-22T15:42:24.634Z,3.30
2023-05-22T15:44:51.730Z,3.13
2023-05-22T15:47:18.683Z,3.67
2023-05-22T15:49:45.926Z,3.55
2023-05-22T15:52:12.912Z,3.72
2023-05-22T15:54:39.946Z,3.90
2023-05-22T15:57:07.115Z,3.15
2023-05-22T15:59:35.563Z,3.53
2023-05-22T16:02:02.589Z,3.25
2023-05-22T16:04:29.609Z,3.50
2023-05-22T16:06:56.612Z,3.13
2023-05-22T16:09:23.797Z,3.53
2023-05-22T16:11:50.826Z,3.63
2023-05-22T16:14:17.961Z,3.97
2023-05-22T16:16:46.436Z,3.45
2023-05-22T16:19:13.589Z,3.78
2023-05-22T16:21:40.694Z,3.22
2023-05-22T16:24:07.874Z,3.25
2023-05-22T16:26:37.618Z,3.50
2023-05-22T16:29:07.144Z,3.53
2023-05-22T16:31:35.589Z,3.53
2023-05-22T16:34:05.100Z,3.75
2023-05-22T16:36:32.622Z,3.70
2023-05-22T16:38:59.760Z,4.00
2023-05-22T16:41:26.914Z,3.95
2023-05-22T16:43:54.016Z,3.45
2023-05-22T16:46:21.303Z,3.88
2023-05-22T16:48:48.549Z,3.90
2023-05-22T16:51:17.304Z,3.67
2023-05-22T16:53:44.527Z,3.55
2023-05-22T16:56:11.585Z,3.42
2023-05-22T16:58:38.670Z,3.92
2023-05-22T17:01:06.474Z,3.67
2023-05-22T17:03:33.729Z,3.22
2023-05-22T17:06:03.103Z,3.70
2023-05-22T17:08:32.202Z,3.25
2023-05-22T17:10:59.233Z,3.90
2023-05-22T17:13:26.273Z,4.10
2023-05-22T17:15:53.538Z,4.50
2023-05-22T17:18:21.131Z,4.20
2023-05-22T17:20:49.394Z,4.05
2023-05-22T17:23:16.923Z,4.30
2023-05-22T17:25:48.010Z,4.70
2023-05-22T17:28:15.644Z,4.40
2023-05-22T17:30:44.150Z,4.35
2023-05-22T17:33:12.327Z,4.95
2023-05-22T17:35:39.711Z,4.78
2023-05-22T17:38:08.506Z,4.72
2023-05-22T17:40:44.046Z,4.70
2023-05-22T17:43:14.033Z,4.95
2023-05-22T17:45:41.843Z,5.10
2023-05-22T17:48:09.350Z,5.10
2023-05-22T17:50:36.554Z,4.80
2023-05-22T17:53:03.639Z,4.53
2023-05-22T17:55:30.855Z,5.20
2023-05-22T17:57:58.646Z,5.07
2023-05-22T18:00:27.141Z,5.15
2023-05-22T18:02:54.285Z,5.13
2023-05-22T18:05:21.365Z,4.97
2023-05-22T18:07:48.590Z,4.60
2023-05-22T18:10:15.952Z,5.20
2023-05-22T18:12:43.037Z,4.90
2023-05-22T18:15:12.205Z,4.72
2023-05-22T18:17:41.495Z,4.80
2023-05-22T18:20:11.960Z,5.25
2023-05-22T18:22:39.947Z,5.00
2023-05-22T18:25:08.202Z,4.68
2023-05-22T18:27:35.563Z,5.22
2023-05-22T18:30:02.835Z,5.00
2023-05-22T18:32:30.262Z,4.78
2023-05-22T18:34:59.945Z,6.03
2023-05-22T18:37:26.988Z,5.80
2023-05-22T18:39:54.015Z,6.65
2023-05-22T18:42:21.233Z,7.43
2023-05-22T18:44:49.161Z,6.68
2023-05-22T18:47:16.916Z,5.47
2023-05-22T18:49:43.941Z,6.53
2023-05-22T18:52:12.455Z,5.30
2023-05-22T18:54:39.511Z,5.30
2023-05-22T18:57:06.651Z,5.50
2023-05-22T18:59:33.683Z,5.43
2023-05-22T19:02:00.741Z,4.95
2023-05-22T19:04:27.808Z,5.50
2023-05-22T19:06:54.811Z,5.13
2023-05-22T19:09:23.279Z,6.10
2023-05-22T19:11:50.421Z,6.80
2023-05-22T19:14:17.609Z,6.10
2023-05-22T19:16:44.721Z,5.03
2023-05-22T19:19:11.872Z,5.15
2023-05-22T19:21:39.194Z,5.57
2023-05-22T19:24:07.105Z,5.20
2023-05-22T19:26:35.493Z,5.82
2023-05-22T19:29:02.494Z,5.75
2023-05-22T19:31:29.808Z,5.75
2023-05-22T19:33:56.966Z,5.35
2023-05-22T19:36:24.026Z,5.35
2023-05-22T19:38:53.227Z,6.15
2023-05-22T19:41:21.521Z,5.75
2023-05-22T19:43:51.300Z,5.90
2023-05-22T19:46:18.385Z,5.40
2023-05-22T19:48:45.410Z,5.85
2023-05-22T19:51:12.474Z,6.78
2023-05-22T19:53:39.551Z,5.88
2023-05-22T19:56:06.682Z,5.60
2023-05-22T19:58:33.766Z,5.65
2023-05-22T20:01:02.304Z,4.72
2023-05-22T20:03:29.378Z,4.70
2023-05-22T20:05:56.593Z,5.20
2023-05-22T20:08:25.445Z,4.80
2023-05-22T20:10:52.845Z,5.25
2023-05-22T20:13:19.870Z,4.82
2023-05-22T20:15:53.311Z,4.63
2023-05-22T20:18:22.184Z,5.22
2023-05-22T20:20:49.715Z,5.85
2023-05-22T20:23:16.762Z,6.30
2023-05-22T20:25:43.895Z,5.50
2023-05-22T20:28:11.156Z,5.95
2023-05-22T20:30:38.184Z,6.57
2023-05-22T20:33:06.367Z,6.15
2023-05-22T20:35:34.975Z,5.68
2023-05-22T20:38:03.353Z,5.63
2023-05-22T20:40:32.284Z,5.70
2023-05-22T20:43:02.465Z,4.82
2023-05-22T20:45:30.236Z,5.47
2023-05-22T20:47:57.450Z,5.97
2023-05-22T20:50:24.600Z,5.50
2023-05-22T20:52:53.048Z,6.03
2023-05-22T20:55:20.157Z,5.20
2023-05-22T20:57:47.153Z,5.68
2023-05-22T21:00:14.780Z,5.40
2023-05-22T21:02:41.924Z,5.50
2023-05-22T21:05:09.687Z,5.50
2023-05-22T21:07:37.083Z,6.25
2023-05-22T21:10:06.495Z,5.80
2023-05-22T21:12:33.535Z,6.07
2023-05-22T21:15:00.651Z,6.15
2023-05-22T21:17:27.796Z,5.65
2023-05-22T21:19:54.892Z,5.50
2023-05-22T21:22:21.943Z,5.53
2023-05-22T21:24:49.118Z,5.10
2023-05-22T21:27:17.478Z,5.20
2023-05-22T21:29:44.487Z,5.50
2023-05-22T21:32:11.465Z,5.78
2023-05-22T21:34:38.462Z,5.88
2023-05-22T21:37:05.635Z,6.15
2023-05-22T21:39:32.664Z,5.85
2023-05-22T21:41:59.907Z,6.05
2023-05-22T21:44:28.276Z,6.00
2023-05-22T21:46:56.084Z,5.38
2023-05-22T21:49:23.137Z,6.13
2023-05-22T21:51:50.120Z,5.82
2023-05-22T21:54:17.143Z,5.70
2023-05-22T21:56:44.133Z,5.47
2023-05-22T21:59:11.523Z,4.78
2023-05-22T22:01:40.075Z,5.60
2023-05-22T22:04:07.234Z,5.60
2023-05-22T22:06:34.279Z,5.43
2023-05-22T22:09:03.367Z,5.28
2023-05-22T22:11:30.457Z,5.75
2023-05-22T22:13:57.492Z,5.15
2023-05-22T22:16:24.655Z,4.93
2023-05-22T22:18:53.124Z,5.60
2023-05-22T22:21:20.610Z,6.20
2023-05-22T22:23:47.627Z,5.65
2023-05-22T22:26:14.653Z,5.97
2023-05-22T22:28:41.711Z,6.30
2023-05-22T22:31:08.685Z,5.70
2023-05-22T22:33:35.677Z,5.50
2023-05-22T22:36:04.392Z,5.50
2023-05-22T22:38:32.965Z,5.55
2023-05-22T22:41:00.512Z,5.50
2023-05-22T22:43:27.547Z,6.28
2023-05-22T22:45:55.845Z,7.40
2023-05-22T22:48:23.045Z,12.02
2023-05-22T22:50:50.178Z,15.00
2023-05-22T22:53:18.594Z,11.48
2023-05-22T22:55:48.716Z,13.23
2023-05-22T22:58:18.742Z,14.63
2023-05-22T23:00:45.746Z,13.27
2023-05-22T23:03:12.879Z,16.30
2023-05-22T23:05:40.404Z,12.90
2023-05-22T23:08:07.709Z,13.25
2023-05-22T23:10:36.217Z,10.27
2023-05-22T23:13:03.300Z,9.43
2023-05-22T23:15:30.586Z,10.13
2023-05-22T23:17:57.624Z,7.60
2023-05-22T23:20:24.621Z,7.25
2023-05-22T23:22:51.589Z,7.03
2023-05-22T23:25:18.665Z,6.05
2023-05-22T23:27:47.147Z,5.72
2023-05-22T23:30:14.310Z,4.93
2023-05-22T23:32:41.379Z,5.35
2023-05-22T23:35:09.721Z,5.10
2023-05-22T23:37:36.980Z,5.25
2023-05-22T23:40:06.041Z,4.75
2023-05-22T23:42:33.159Z,4.85
2023-05-22T23:45:01.814Z,4.38
2023-05-22T23:47:28.857Z,4.00
2023-05-22T23:49:56.738Z,3.63
2023-05-22T23:52:23.737Z,3.70
2023-05-22T23:54:50.810Z,4.00
2023-05-22T23:57:17.855Z,4.10
2023-05-22T23:59:44.947Z,3.97
